Jonestown, Pennsylvania
Current Conditions -  °F | °C
As of 12:58 PM on Tuesday 21 Oct 2014 (Local Time) from KMUI Reporting Station
Overcast Overcast  
Wind Chill: 59°   Ceiling: 4900
Heat Index: 59°   Visibility: 10mi
Dew Point: 55°   Wind: 5mph
Humidity: 86%   Direction: 260°W
Pressure: 29.85"   Gusts: NA
Location:  40.41°N, 76.48°W
Report Text: KMUI 211658Z AUTO 26004KT 10SM OVC049 15/13 A2985 RMK AO2 SLP111 T01520128 $
Loading
Personal Weather Stations






























Interactive Weather Map
Tropical Storm Tracking
New forecast layout! Learn more

10-Day Weather Forecast

Advertisements
Track Severe Weather on mobile